createdAt,value
2019-01-11T00:01:23.120Z,3.30
2019-01-11T00:04:02.675Z,3.30
2019-01-11T00:06:42.832Z,3.30
2019-01-11T00:09:10.472Z,3.30
2019-01-11T00:11:57.485Z,3.30
2019-01-11T00:14:44.546Z,3.30
2019-01-11T00:17:24.198Z,3.30
2019-01-11T00:20:04.321Z,3.30
2019-01-11T00:22:44.400Z,3.30
2019-01-11T00:25:24.314Z,3.40
2019-01-11T00:28:04.365Z,3.30
2019-01-11T00:30:44.296Z,3.30
2019-01-11T00:33:24.418Z,3.30
2019-01-11T00:36:04.404Z,3.30
2019-01-11T00:38:44.495Z,3.10
2019-01-11T00:41:24.469Z,3.30
2019-01-11T00:44:04.614Z,3.30
2019-01-11T00:46:44.696Z,3.30
2019-01-11T00:49:24.748Z,3.30
2019-01-11T00:52:04.741Z,3.30
2019-01-11T00:54:44.570Z,3.30
2019-01-11T00:57:12.176Z,3.10
2019-01-11T00:59:59.200Z,3.30
2019-01-11T01:02:46.294Z,3.30
2019-01-11T01:05:26.546Z,3.30
2019-01-11T01:08:06.608Z,3.30
2019-01-11T01:10:46.653Z,3.30
2019-01-11T01:13:26.701Z,3.30
2019-01-11T01:16:06.738Z,3.30
2019-01-11T01:18:46.527Z,3.30
2019-01-11T01:21:26.478Z,3.30
2019-01-11T01:24:06.258Z,3.30
2019-01-11T01:26:46.149Z,3.10
2019-01-11T01:29:26.262Z,3.30
2019-01-11T01:32:06.269Z,3.30
2019-01-11T01:34:46.280Z,3.30
2019-01-11T01:37:14.002Z,3.30
2019-01-11T01:40:01.030Z,3.30
2019-01-11T01:42:48.058Z,3.30
2019-01-11T01:45:27.596Z,3.40
2019-01-11T01:48:07.639Z,3.30
2019-01-11T01:50:47.767Z,3.30
2019-01-11T01:53:27.763Z,3.30
2019-01-11T01:56:07.801Z,3.40
2019-01-11T01:58:47.978Z,3.30
2019-01-11T02:01:28.081Z,3.30
2019-01-11T02:04:08.200Z,3.40
2019-01-11T02:06:48.353Z,3.30
2019-01-11T02:09:28.249Z,3.40
2019-01-11T02:12:08.380Z,3.40
2019-01-11T02:14:48.343Z,3.30
2019-01-11T02:17:28.421Z,3.60
2019-01-11T02:20:08.464Z,3.40
2019-01-11T02:22:48.664Z,3.40
2019-01-11T02:25:28.804Z,3.20
2019-01-11T02:28:08.933Z,3.40
2019-01-11T02:30:49.003Z,3.40
2019-01-11T02:33:28.739Z,3.50
2019-01-11T02:36:08.735Z,3.40
2019-01-11T02:38:48.714Z,3.40
2019-01-11T02:41:28.559Z,3.40
2019-01-11T02:44:08.471Z,3.60
2019-01-11T02:46:48.516Z,3.40
2019-01-11T02:49:28.437Z,3.50
2019-01-11T02:52:08.584Z,3.50
2019-01-11T02:54:48.743Z,3.50
2019-01-11T02:57:28.869Z,3.50
2019-01-11T03:00:09.081Z,3.50
2019-01-11T03:02:49.188Z,3.50
2019-01-11T03:05:29.322Z,3.50
2019-01-11T03:08:09.371Z,3.50
2019-01-11T03:10:49.506Z,3.50
2019-01-11T03:13:29.492Z,3.50
2019-01-11T03:16:09.683Z,3.50
2019-01-11T03:18:49.618Z,3.50
2019-01-11T03:21:29.623Z,3.30
2019-01-11T03:24:09.644Z,3.50
2019-01-11T03:26:49.759Z,3.50
2019-01-11T03:29:29.809Z,3.60
2019-01-11T03:32:09.787Z,3.70
2019-01-11T03:35:09.416Z,3.60
2019-01-11T03:37:48.962Z,3.60
2019-01-11T03:40:29.017Z,3.50
2019-01-11T03:43:09.106Z,3.60
2019-01-11T03:45:49.137Z,3.60
2019-01-11T03:48:29.122Z,3.60
2019-01-11T03:51:09.225Z,3.60
2019-01-11T03:53:49.438Z,3.70
2019-01-11T03:56:29.617Z,3.70
2019-01-11T03:59:09.307Z,3.70
2019-01-11T04:01:49.528Z,3.70
2019-01-11T04:04:29.718Z,3.70
2019-01-11T04:07:09.937Z,3.80
2019-01-11T04:09:50.044Z,3.80
2019-01-11T04:12:30.159Z,3.80
2019-01-11T04:15:11.039Z,3.70
2019-01-11T04:18:10.745Z,3.80
2019-01-11T04:20:51.342Z,3.80
2019-01-11T04:23:31.099Z,3.80
2019-01-11T04:26:11.107Z,3.80
2019-01-11T04:28:50.945Z,3.90
2019-01-11T04:31:18.495Z,3.90
2019-01-11T04:34:05.505Z,3.90
2019-01-11T04:36:52.534Z,4.00
2019-01-11T04:39:32.838Z,4.00
2019-01-11T04:42:12.555Z,3.90
2019-01-11T04:44:52.282Z,4.00
2019-01-11T04:47:32.000Z,4.00
2019-01-11T04:50:11.947Z,4.00
2019-01-11T04:52:51.879Z,4.10
2019-01-11T04:55:31.941Z,4.00
2019-01-11T04:58:11.901Z,4.10
2019-01-11T05:00:52.058Z,4.00
2019-01-11T05:03:32.105Z,4.10
2019-01-11T05:06:12.073Z,4.00
2019-01-11T05:08:51.975Z,4.10
2019-01-11T05:11:31.992Z,4.00
2019-01-11T05:14:11.950Z,4.10
2019-01-11T05:16:51.951Z,4.10
2019-01-11T05:19:31.912Z,4.10
2019-01-11T05:22:11.732Z,4.30
2019-01-11T05:24:51.721Z,4.20
2019-01-11T05:27:31.847Z,4.20
2019-01-11T05:30:11.788Z,4.20
2019-01-11T05:32:51.818Z,4.20
2019-01-11T05:35:31.614Z,4.20
2019-01-11T05:37:59.232Z,4.20
2019-01-11T05:40:46.223Z,4.20
2019-01-11T05:43:25.846Z,4.30
2019-01-11T05:46:05.840Z,4.20
2019-01-11T05:48:45.602Z,4.30
2019-01-11T05:51:25.521Z,4.30
2019-01-11T05:54:05.542Z,4.30
2019-01-11T05:56:45.522Z,4.30
2019-01-11T05:59:25.541Z,4.30
2019-01-11T06:02:05.763Z,4.30
2019-01-11T06:04:47.387Z,4.30
2019-01-11T06:07:31.566Z,4.30
2019-01-11T06:10:11.941Z,4.30
2019-01-11T06:12:51.981Z,4.40
2019-01-11T06:15:32.133Z,4.30
2019-01-11T06:18:12.278Z,4.30
2019-01-11T06:20:52.162Z,4.40
2019-01-11T06:23:31.989Z,4.40
2019-01-11T06:26:11.985Z,4.40
2019-01-11T06:28:52.027Z,4.40
2019-01-11T06:31:32.312Z,4.40
2019-01-11T06:34:12.258Z,4.40
2019-01-11T06:36:52.212Z,4.40
2019-01-11T06:39:32.207Z,4.40
2019-01-11T06:42:31.766Z,4.40
2019-01-11T06:45:11.336Z,4.40
2019-01-11T06:47:51.294Z,4.40
2019-01-11T06:50:36.472Z,4.40
2019-01-11T06:53:13.216Z,4.40
2019-01-11T06:55:53.359Z,4.40
2019-01-11T06:58:33.320Z,4.50
2019-01-11T07:01:13.234Z,4.50
2019-01-11T07:03:53.518Z,4.50
2019-01-11T07:06:33.193Z,4.50
2019-01-11T07:09:00.784Z,4.40
2019-01-11T07:11:47.765Z,4.50
2019-01-11T07:14:27.521Z,4.60
2019-01-11T07:17:07.533Z,4.60
2019-01-11T07:19:47.604Z,4.60
2019-01-11T07:22:15.172Z,4.50
2019-01-11T07:25:02.222Z,4.60
2019-01-11T07:31:15.236Z,4.70
2019-01-11T07:33:55.893Z,4.60
2019-01-11T07:36:36.706Z,4.70
2019-01-11T07:39:36.591Z,4.50
2019-01-11T07:42:16.261Z,4.60
2019-01-11T07:44:56.245Z,4.60
2019-01-11T07:47:24.215Z,4.60
2019-01-11T07:50:12.683Z,4.70
2019-01-11T07:52:52.604Z,4.70
2019-01-11T07:55:32.643Z,4.90
2019-01-11T07:58:12.750Z,4.60
2019-01-11T08:00:52.532Z,4.80
2019-01-11T08:03:32.436Z,5.00
2019-01-11T08:06:12.468Z,4.80
2019-01-11T08:08:53.791Z,4.80
2019-01-11T08:11:33.593Z,4.90
2019-01-11T08:14:13.608Z,4.90
2019-01-11T08:16:53.743Z,4.90
2019-01-11T08:19:33.972Z,4.80
2019-01-11T08:25:30.780Z,4.90
2019-01-11T08:28:11.955Z,4.80
2019-01-11T08:30:51.637Z,5.10
2019-01-11T08:33:32.799Z,5.00
2019-01-11T08:36:00.636Z,5.10
2019-01-11T08:38:47.624Z,5.10
2019-01-11T08:41:27.645Z,5.10
2019-01-11T08:43:55.188Z,5.10
2019-01-11T08:46:42.238Z,5.20
2019-01-11T08:49:29.238Z,5.10
2019-01-11T08:52:09.385Z,5.20
2019-01-11T08:54:49.439Z,5.20
2019-01-11T08:57:30.396Z,5.20
2019-01-11T09:00:10.306Z,5.30
2019-01-11T09:02:50.266Z,5.10
2019-01-11T09:05:30.363Z,5.30
2019-01-11T09:07:57.977Z,5.30
2019-01-11T09:10:44.998Z,5.40
2019-01-11T09:13:25.357Z,5.40
2019-01-11T09:16:05.226Z,5.50
2019-01-11T09:18:52.328Z,5.50
2019-01-11T09:21:32.320Z,5.50
2019-01-11T09:24:12.384Z,5.40
2019-01-11T09:26:39.950Z,5.50
2019-01-11T09:29:26.996Z,5.60
2019-01-11T09:32:07.485Z,5.60
2019-01-11T09:34:47.540Z,5.70
2019-01-11T09:37:27.490Z,5.60
2019-01-11T09:40:07.795Z,5.90
2019-01-11T09:42:47.679Z,5.90
2019-01-11T09:45:27.897Z,6.00
2019-01-11T09:48:07.647Z,6.10
2019-01-11T09:50:47.580Z,6.20
2019-01-11T09:53:27.740Z,6.20
2019-01-11T09:56:07.558Z,6.30
2019-01-11T09:58:47.769Z,6.40
2019-01-11T10:01:27.678Z,6.40
2019-01-11T10:04:09.479Z,6.50
2019-01-11T10:09:50.857Z,6.60
2019-01-11T10:12:30.621Z,6.70
2019-01-11T10:15:10.745Z,6.80
2019-01-11T10:17:51.585Z,6.80
2019-01-11T10:20:31.992Z,7.00
2019-01-11T10:23:12.186Z,7.00
2019-01-11T10:25:52.112Z,7.10
2019-01-11T10:28:32.156Z,7.40
2019-01-11T10:31:12.221Z,7.50
2019-01-11T10:33:52.365Z,7.50
2019-01-11T10:36:32.298Z,7.40
2019-01-11T10:39:12.239Z,7.60
2019-01-11T10:41:52.274Z,7.70
2019-01-11T10:44:32.178Z,7.70
2019-01-11T10:47:12.301Z,7.70
2019-01-11T10:49:52.158Z,7.70
2019-01-11T10:52:32.164Z,8.00
2019-01-11T10:55:11.997Z,7.80
2019-01-11T10:57:39.606Z,7.80
2019-01-11T11:00:26.721Z,7.80
2019-01-11T11:03:06.903Z,7.90
2019-01-11T11:05:47.102Z,7.80
2019-01-11T11:08:27.237Z,7.90
2019-01-11T11:11:07.467Z,8.00
2019-01-11T11:13:47.425Z,8.10
2019-01-11T11:16:27.349Z,8.10
2019-01-11T11:19:07.608Z,8.20
2019-01-11T11:21:47.587Z,8.20
2019-01-11T11:24:27.437Z,8.30
2019-01-11T11:26:55.062Z,8.30
2019-01-11T11:29:42.036Z,8.40
2019-01-11T11:32:28.180Z,8.40
2019-01-11T11:35:08.727Z,8.40
2019-01-11T11:37:48.753Z,8.40
2019-01-11T11:40:28.824Z,8.50
2019-01-11T11:43:08.923Z,8.40
2019-01-11T11:45:48.902Z,8.40
2019-01-11T11:48:28.964Z,8.40
2019-01-11T11:51:09.147Z,8.40
2019-01-11T11:53:49.868Z,8.40
2019-01-11T11:56:30.166Z,8.40
2019-01-11T11:59:10.059Z,8.30
2019-01-11T12:01:52.427Z,8.30
2019-01-11T12:04:31.933Z,8.20
2019-01-11T12:07:12.360Z,8.20
2019-01-11T12:09:52.151Z,8.00
2019-01-11T12:12:32.143Z,8.20
2019-01-11T12:15:11.988Z,8.30
2019-01-11T12:17:52.060Z,8.20
2019-01-11T12:20:32.113Z,8.30
2019-01-11T12:23:12.088Z,8.20
2019-01-11T12:25:51.969Z,8.40
2019-01-11T12:28:31.933Z,8.20
2019-01-11T12:31:12.049Z,8.20
2019-01-11T12:33:52.221Z,8.20
2019-01-11T12:36:32.248Z,8.10
2019-01-11T12:39:12.282Z,8.20
2019-01-11T12:41:52.221Z,8.10
2019-01-11T12:44:32.311Z,8.10
2019-01-11T12:46:59.897Z,8.20
2019-01-11T12:49:46.920Z,8.10
2019-01-11T12:52:33.955Z,8.20
2019-01-11T12:55:14.031Z,8.20
2019-01-11T13:00:37.049Z,8.30
2019-01-11T13:03:17.221Z,8.30
2019-01-11T13:05:57.361Z,8.30
2019-01-11T13:08:37.185Z,8.40
2019-01-11T13:11:18.169Z,8.40
2019-01-11T13:13:57.741Z,8.40
2019-01-11T13:16:38.381Z,8.40
2019-01-11T13:19:18.808Z,8.30
2019-01-11T13:22:00.716Z,8.30
2019-01-11T13:24:41.079Z,8.30
2019-01-11T13:27:21.156Z,8.30
2019-01-11T13:30:01.232Z,8.30
2019-01-11T13:32:41.543Z,8.30
2019-01-11T13:35:21.273Z,8.30
2019-01-11T13:38:01.342Z,8.40
2019-01-11T13:40:41.321Z,8.40
2019-01-11T13:43:21.313Z,8.40
2019-01-11T13:46:01.379Z,8.40
2019-01-11T13:48:41.367Z,8.40
2019-01-11T13:51:21.445Z,8.30
2019-01-11T13:54:01.481Z,8.30
2019-01-11T13:56:41.266Z,8.30
2019-01-11T13:59:08.997Z,8.30
2019-01-11T14:01:55.995Z,8.30
2019-01-11T14:04:36.592Z,8.30
2019-01-11T14:07:16.286Z,8.20
2019-01-11T14:09:56.245Z,8.20
2019-01-11T14:12:36.237Z,8.20
2019-01-11T14:15:16.310Z,8.20
2019-01-11T14:17:43.945Z,8.10
2019-01-11T14:20:30.957Z,8.10
2019-01-11T14:23:18.021Z,8.20
2019-01-11T14:25:58.447Z,8.30
2019-01-11T14:31:21.474Z,8.30
2019-01-11T14:34:01.374Z,8.30
2019-01-11T14:36:41.917Z,8.20
2019-01-11T14:42:04.733Z,8.20
2019-01-11T14:44:44.765Z,8.20
2019-01-11T14:47:26.357Z,8.20
2019-01-11T14:50:06.757Z,8.20
2019-01-11T14:52:46.757Z,8.20
2019-01-11T14:55:26.687Z,8.20
2019-01-11T14:58:06.797Z,8.30
2019-01-11T15:00:46.665Z,8.20
2019-01-11T15:03:26.591Z,8.20
2019-01-11T15:06:06.707Z,8.20
2019-01-11T15:08:46.422Z,8.10
2019-01-11T15:11:26.587Z,8.30
2019-01-11T15:14:06.453Z,8.20
2019-01-11T15:16:46.556Z,8.10
2019-01-11T15:19:26.426Z,8.20
2019-01-11T15:22:06.403Z,8.20
2019-01-11T15:24:46.363Z,8.10
2019-01-11T15:27:26.470Z,8.20
2019-01-11T15:30:06.656Z,8.20
2019-01-11T15:32:46.633Z,8.20
2019-01-11T15:35:26.782Z,8.20
2019-01-11T15:38:06.986Z,8.30
2019-01-11T15:40:46.641Z,8.20
2019-01-11T15:43:26.762Z,8.20
2019-01-11T15:46:07.057Z,8.20
2019-01-11T15:48:46.725Z,8.20
2019-01-11T15:51:30.334Z,8.20
2019-01-11T15:54:10.849Z,8.20
2019-01-11T15:56:50.978Z,8.20
2019-01-11T15:59:30.928Z,8.10
2019-01-11T16:02:11.057Z,8.20
2019-01-11T16:10:20.017Z,8.10
2019-01-11T16:15:52.425Z,8.00
2019-01-11T16:21:16.974Z,8.00
2019-01-11T16:26:42.924Z,8.00
2019-01-11T16:29:22.858Z,8.00
2019-01-11T16:32:02.808Z,8.00
2019-01-11T16:34:42.680Z,7.80
2019-01-11T16:37:22.863Z,7.90
2019-01-11T16:45:55.110Z,7.80
2019-01-11T16:48:35.134Z,7.70
2019-01-11T16:51:16.258Z,7.80
2019-01-11T16:53:55.977Z,7.60
2019-01-11T16:56:35.964Z,7.50
2019-01-11T16:59:16.181Z,7.40
2019-01-11T17:01:56.121Z,7.40
2019-01-11T17:04:36.112Z,7.40
2019-01-11T17:10:02.158Z,7.40
2019-01-11T17:15:28.391Z,7.40
2019-01-11T17:18:08.818Z,7.40
2019-01-11T17:20:48.418Z,7.40
2019-01-11T17:23:28.442Z,7.40
2019-01-11T17:26:08.518Z,7.30
2019-01-11T17:28:48.579Z,7.30
2019-01-11T17:31:29.638Z,7.40
2019-01-11T17:34:09.598Z,7.40
2019-01-11T17:36:49.922Z,7.40
2019-01-11T17:39:29.975Z,7.40
2019-01-11T17:42:09.991Z,7.40
2019-01-11T17:44:49.877Z,7.40
2019-01-11T17:50:15.633Z,7.40
2019-01-11T17:52:59.751Z,7.40
2019-01-11T17:55:37.526Z,7.50
2019-01-11T17:58:18.568Z,7.50
2019-01-11T18:01:02.439Z,7.40
2019-01-11T18:06:28.872Z,7.50
2019-01-11T18:11:57.724Z,7.50
2019-01-11T18:20:12.341Z,7.40
2019-01-11T18:22:52.332Z,7.40
2019-01-11T18:25:32.242Z,7.40
2019-01-11T18:28:12.107Z,7.40
2019-01-11T18:30:51.916Z,7.40
2019-01-11T18:33:32.115Z,7.20
2019-01-11T18:36:12.110Z,7.40
2019-01-11T18:38:52.180Z,7.40
2019-01-11T18:41:32.335Z,7.30
2019-01-11T18:44:12.164Z,7.40
2019-01-11T18:46:52.268Z,7.40
2019-01-11T18:49:32.388Z,7.40
2019-01-11T18:52:12.353Z,7.40
2019-01-11T18:54:52.332Z,7.40
2019-01-11T18:57:32.258Z,7.40
2019-01-11T19:00:12.347Z,7.50
2019-01-11T19:02:52.255Z,7.30
2019-01-11T19:05:32.447Z,7.30
2019-01-11T19:08:12.548Z,7.40
2019-01-11T19:10:52.742Z,7.30
2019-01-11T19:13:32.734Z,7.30
2019-01-11T19:18:57.090Z,7.30
2019-01-11T19:21:36.650Z,7.30
2019-01-11T19:24:16.807Z,7.30
2019-01-11T19:26:56.994Z,7.30
2019-01-11T19:29:36.859Z,7.30
2019-01-11T19:35:02.752Z,7.30
2019-01-11T19:37:42.924Z,7.10
2019-01-11T19:40:22.843Z,7.30
2019-01-11T19:43:02.796Z,7.20
2019-01-11T19:45:42.643Z,7.40
2019-01-11T19:48:22.817Z,7.30
2019-01-11T19:51:03.002Z,7.20
2019-01-11T19:53:44.140Z,7.20
2019-01-11T19:56:23.947Z,7.20
2019-01-11T19:59:04.004Z,7.10
2019-01-11T20:01:44.146Z,7.20
2019-01-11T20:04:24.261Z,7.20
2019-01-11T20:07:04.318Z,7.10
2019-01-11T20:09:44.246Z,7.10
2019-01-11T20:12:24.273Z,7.00
2019-01-11T20:15:05.674Z,7.00
2019-01-11T20:17:45.372Z,7.00
2019-01-11T20:20:25.364Z,7.10
2019-01-11T20:23:05.550Z,7.10
2019-01-11T20:28:31.374Z,7.10
2019-01-11T20:31:11.471Z,7.10
2019-01-11T20:33:51.455Z,7.10
2019-01-11T20:36:31.307Z,7.00
2019-01-11T20:38:58.985Z,7.10
2019-01-11T20:41:46.080Z,7.10
2019-01-11T20:44:26.476Z,6.90
2019-01-11T20:47:06.458Z,7.00
2019-01-11T20:49:46.311Z,7.00
2019-01-11T20:52:13.968Z,7.00
2019-01-11T20:55:01.058Z,7.00
2019-01-11T20:57:48.060Z,7.00
2019-01-11T21:03:13.780Z,6.90
2019-01-11T21:06:00.836Z,6.90
2019-01-11T21:08:40.795Z,6.90
2019-01-11T21:11:21.016Z,6.90
2019-01-11T21:13:48.653Z,7.10
2019-01-11T21:16:35.692Z,6.90
2019-01-11T21:19:15.988Z,7.00
2019-01-11T21:21:55.848Z,6.90
2019-01-11T21:24:35.722Z,7.00
2019-01-11T21:27:15.838Z,6.90
2019-01-11T21:32:41.668Z,6.90
2019-01-11T21:35:21.506Z,6.90
2019-01-11T21:38:01.483Z,6.90
2019-01-11T21:40:41.468Z,6.90
2019-01-11T21:43:09.203Z,6.80
2019-01-11T21:46:03.158Z,6.90
2019-01-11T21:48:38.647Z,6.90
2019-01-11T21:51:18.761Z,7.10
2019-01-11T21:53:58.744Z,6.90
2019-01-11T21:56:39.111Z,6.90
2019-01-11T21:59:19.263Z,6.80
2019-01-11T22:01:59.337Z,6.90
2019-01-11T22:04:39.231Z,6.80
2019-01-11T22:07:19.227Z,6.90
2019-01-11T22:09:59.198Z,6.90
2019-01-11T22:12:39.219Z,6.90
2019-01-11T22:15:19.078Z,6.90
2019-01-11T22:17:59.244Z,6.90
2019-01-11T22:20:39.357Z,6.90
2019-01-11T22:23:23.778Z,6.90
2019-01-11T22:26:01.465Z,6.90
2019-01-11T22:28:41.729Z,6.90
2019-01-11T22:31:21.930Z,6.90
2019-01-11T22:34:02.034Z,6.80
2019-01-11T22:36:41.890Z,6.90
2019-01-11T22:39:22.117Z,6.80
2019-01-11T22:42:03.520Z,6.80
2019-01-11T22:44:44.040Z,6.80
2019-01-11T22:47:24.002Z,6.80
2019-01-11T22:50:03.917Z,6.80
2019-01-11T22:52:43.836Z,6.80
2019-01-11T22:55:23.864Z,6.80
2019-01-11T22:58:04.048Z,6.80
2019-01-11T23:00:44.703Z,6.70
2019-01-11T23:03:25.421Z,6.80
2019-01-11T23:06:09.022Z,6.80
2019-01-11T23:08:47.095Z,6.80
2019-01-11T23:11:27.082Z,6.80
2019-01-11T23:14:06.970Z,6.60
2019-01-11T23:16:46.813Z,6.60
2019-01-11T23:19:26.676Z,6.80
2019-01-11T23:22:06.675Z,6.80
2019-01-11T23:24:46.667Z,6.80
2019-01-11T23:27:26.675Z,6.80
2019-01-11T23:30:06.827Z,6.80
2019-01-11T23:32:46.927Z,6.80
2019-01-11T23:35:27.008Z,6.80
2019-01-11T23:38:06.873Z,6.80
2019-01-11T23:40:46.811Z,6.80
2019-01-11T23:43:26.657Z,6.80
2019-01-11T23:46:06.767Z,6.80
2019-01-11T23:48:46.586Z,6.70
2019-01-11T23:51:14.212Z,6.80
2019-01-11T23:54:01.247Z,6.80
2019-01-11T23:56:41.769Z,6.80
